Página principal
METAR-TAF:

METAR-TAF

Aeroportos :

Indianápolis, Indiana, Estados Unidos

latitude: 39-43-30N, longitude: 086-16-55W, altura: 243 m

Observação actual do tempo

O boletim foi feito há 24 minutos, às 08:54 UTC
Vento 6 kt de su-sudoeste
Temperatura 24°C
Humidade 89%
Pressão 1018 hPa
Visibilidade: 9.7 km
Poucas nuvensa uma altura de 25000 ft
neblina

METAR: KIND 180854Z 21006KT 6SM BR FEW250 24/22 A3005 RMK AO2 SLP167 T02390222 56007

Hora: 05:18 (09:18 UTC)

Previsão

O boletim foi feito há 57 minutos, às 08:21 UTC
Previsão válida de 18 às 08 UTC a 19 às 12 UTC
Vento 7 kt de su-sudoeste
Visibilidade: 9.7 km
Nuvens dispersasa uma altura de 25000 ft
neblina
A partir de 18 às 1300 UTC
Vento 8 kt de oes-sudoeste
Visibilidade: 10 km
Poucas nuvensa uma altura de 25000 ft
A partir de 19 às 0200 UTC
Vento 6 kt de sudoeste
Visibilidade: 10 km
Poucas nuvensa uma altura de 25000 ft

TAF: KIND 180821Z 1808/1912 21007KT 6SM BR SCT250 FM181300 25008KT P6SM FEW250 FM190200 22006KT P6SM FEW250

Observações e previsões do tempo de mais de 4000 aeroportos (mensagens METAR e TAF).

As estações disponíveis são os pontos amarelos e vermelhos sobre o mapa.

Mova o rato sobre o mapa para ver o nome da estação.

Depois clique no ponto para visualizar as observações e previsões meteorológicas.

Para alterar o mapa : clique nos botões verdes com uma cruz preta para aumentar o zoom; no botão verde com uma pitada de zoom; ou nas setas verdes para mapas adjacentes.


METAR-TAF: